createdAt,value
2022-10-19T00:00:31.819Z,16.59
2022-10-19T00:06:50.220Z,16.36
2022-10-19T00:09:19.703Z,16.39
2022-10-19T00:11:49.839Z,16.50
2022-10-19T00:14:21.028Z,16.45
2022-10-19T00:16:50.217Z,16.34
2022-10-19T00:19:23.583Z,16.34
2022-10-19T00:24:19.487Z,16.75
2022-10-19T00:26:46.930Z,16.72
2022-10-19T00:29:14.922Z,16.55
2022-10-19T00:31:42.693Z,16.78
2022-10-19T00:34:10.342Z,16.70
2022-10-19T00:36:40.885Z,16.49
2022-10-19T00:39:13.826Z,16.69
2022-10-19T00:41:47.612Z,17.05
2022-10-19T00:44:16.001Z,17.15
2022-10-19T00:46:45.904Z,17.33
2022-10-19T00:49:15.557Z,17.27
2022-10-19T00:51:47.496Z,16.74
2022-10-19T00:54:18.602Z,17.16
2022-10-19T00:56:49.672Z,17.17
2022-10-19T00:59:24.420Z,16.97
2022-10-19T01:01:56.706Z,16.79
2022-10-19T01:04:28.378Z,16.48
2022-10-19T01:06:57.536Z,16.37
2022-10-19T01:09:25.240Z,16.92
2022-10-19T01:11:58.640Z,16.64
2022-10-19T01:14:37.695Z,17.01
2022-10-19T01:17:30.216Z,16.97
2022-10-19T01:20:09.658Z,16.89
2022-10-19T01:23:05.799Z,16.97
2022-10-19T01:25:54.192Z,16.94
2022-10-19T01:28:46.299Z,17.02
2022-10-19T01:31:34.379Z,16.96
2022-10-19T01:34:23.826Z,16.98
2022-10-19T01:36:51.235Z,17.30
2022-10-19T01:39:30.227Z,17.25
2022-10-19T01:42:06.739Z,17.13
2022-10-19T01:44:50.473Z,16.89
2022-10-19T01:47:25.001Z,17.06
2022-10-19T01:50:17.994Z,17.20
2022-10-19T01:52:50.897Z,17.26
2022-10-19T01:55:27.265Z,17.09
2022-10-19T01:58:06.130Z,17.27
2022-10-19T02:00:37.602Z,17.33
2022-10-19T02:03:07.061Z,17.22
2022-10-19T02:05:36.998Z,16.46
2022-10-19T02:08:12.164Z,16.15
2022-10-19T02:10:43.512Z,16.29
2022-10-19T02:13:13.974Z,16.20
2022-10-19T02:15:47.110Z,15.87
2022-10-19T02:18:19.889Z,15.37
2022-10-19T02:20:47.612Z,15.15
2022-10-19T02:23:20.665Z,15.45
2022-10-19T02:25:48.500Z,15.69
2022-10-19T02:28:16.155Z,15.71
2022-10-19T02:30:43.846Z,15.80
2022-10-19T02:33:12.686Z,15.57
2022-10-19T02:35:40.622Z,15.58
2022-10-19T02:38:11.927Z,15.41
2022-10-19T02:40:43.595Z,15.75
2022-10-19T02:43:15.271Z,15.78
2022-10-19T02:45:53.754Z,15.79
2022-10-19T02:48:25.080Z,15.69
2022-10-19T02:50:52.468Z,15.54
2022-10-19T02:53:19.988Z,15.49
2022-10-19T02:55:49.896Z,15.58
2022-10-19T02:58:17.556Z,15.60
2022-10-19T03:00:55.333Z,15.76
2022-10-19T03:03:52.087Z,15.91
2022-10-19T03:06:24.338Z,15.83
2022-10-19T03:08:54.348Z,15.60
2022-10-19T03:11:21.957Z,15.39
2022-10-19T03:13:52.484Z,15.13
2022-10-19T03:16:20.203Z,15.41
2022-10-19T03:18:50.665Z,15.54
2022-10-19T03:21:18.757Z,15.66
2022-10-19T03:23:46.413Z,15.44
2022-10-19T03:26:16.552Z,15.13
2022-10-19T03:28:44.123Z,15.03
2022-10-19T03:31:11.783Z,15.09
2022-10-19T03:33:39.178Z,14.80
2022-10-19T03:36:16.500Z,14.87
2022-10-19T03:38:44.336Z,14.84
2022-10-19T03:41:12.256Z,14.88
2022-10-19T03:43:41.281Z,15.23
2022-10-19T03:46:09.407Z,15.57
2022-10-19T03:48:37.012Z,15.44
2022-10-19T03:51:07.478Z,15.20
2022-10-19T03:53:35.639Z,15.31
2022-10-19T03:56:14.570Z,15.42
2022-10-19T03:58:43.630Z,15.28
2022-10-19T04:01:15.025Z,15.28
2022-10-19T04:03:42.897Z,15.13
2022-10-19T04:06:19.596Z,14.97
2022-10-19T04:08:50.284Z,14.97
2022-10-19T04:11:20.832Z,14.93
2022-10-19T04:13:52.590Z,14.97
2022-10-19T04:16:21.668Z,15.13
2022-10-19T04:18:49.420Z,15.13
2022-10-19T04:21:31.529Z,15.00
2022-10-19T04:24:08.221Z,15.29
2022-10-19T04:26:40.383Z,15.28
2022-10-19T04:29:08.213Z,15.11
2022-10-19T04:31:39.158Z,15.10
2022-10-19T04:34:09.615Z,14.91
2022-10-19T04:36:37.925Z,14.90
2022-10-19T04:39:06.132Z,14.38
2022-10-19T04:41:34.508Z,14.38
2022-10-19T04:44:04.337Z,14.74
2022-10-19T04:46:31.796Z,14.77
2022-10-19T04:48:59.679Z,14.69
2022-10-19T04:51:27.720Z,14.74
2022-10-19T04:53:59.551Z,14.70
2022-10-19T04:56:28.055Z,14.60
2022-10-19T04:58:57.569Z,14.79
2022-10-19T05:01:26.847Z,14.56
2022-10-19T05:06:24.670Z,14.71
2022-10-19T05:08:52.963Z,14.89
2022-10-19T05:11:20.842Z,14.73
2022-10-19T05:13:48.915Z,14.27
2022-10-19T05:16:22.045Z,14.73
2022-10-19T05:18:59.776Z,14.81
2022-10-19T05:21:30.003Z,14.63
2022-10-19T05:23:58.001Z,14.51
2022-10-19T05:26:27.398Z,14.49
2022-10-19T05:29:15.322Z,14.43
2022-10-19T05:31:50.373Z,14.39
2022-10-19T05:34:18.059Z,14.31
2022-10-19T05:36:47.818Z,14.30
2022-10-19T05:39:38.625Z,14.46
2022-10-19T05:42:06.286Z,14.48
2022-10-19T05:44:33.935Z,14.54
2022-10-19T05:47:01.702Z,14.55
2022-10-19T05:49:30.103Z,14.79
2022-10-19T05:52:00.699Z,15.12
2022-10-19T05:54:28.686Z,15.23
2022-10-19T05:56:56.557Z,15.40
2022-10-19T05:59:24.273Z,15.38
2022-10-19T06:01:51.721Z,15.35
2022-10-19T06:04:19.278Z,14.79
2022-10-19T06:06:46.833Z,13.91
2022-10-19T06:09:14.345Z,14.31
2022-10-19T06:11:43.259Z,14.74
2022-10-19T06:14:15.887Z,15.17
2022-10-19T06:16:45.918Z,15.23
2022-10-19T06:19:13.663Z,15.28
2022-10-19T06:21:43.385Z,15.36
2022-10-19T06:24:13.299Z,15.45
2022-10-19T06:26:40.926Z,15.71
2022-10-19T06:29:09.391Z,15.73
2022-10-19T06:31:37.330Z,15.57
2022-10-19T06:34:05.282Z,15.84
2022-10-19T06:36:33.631Z,15.98
2022-10-19T06:39:01.991Z,16.12
2022-10-19T06:41:31.381Z,16.19
2022-10-19T06:44:12.570Z,16.53
2022-10-19T06:46:40.077Z,16.83
2022-10-19T06:49:07.561Z,17.22
2022-10-19T06:51:35.162Z,17.41
2022-10-19T06:54:03.050Z,17.02
2022-10-19T06:56:30.526Z,17.00
2022-10-19T06:58:58.407Z,16.97
2022-10-19T07:01:26.047Z,16.90
2022-10-19T07:03:54.275Z,17.29
2022-10-19T07:06:23.551Z,17.16
2022-10-19T07:08:52.318Z,17.48
2022-10-19T07:11:22.577Z,18.04
2022-10-19T07:13:51.978Z,18.27
2022-10-19T07:16:21.053Z,17.93
2022-10-19T07:18:51.741Z,18.06
2022-10-19T07:21:21.432Z,18.18
2022-10-19T07:23:49.081Z,18.61
2022-10-19T07:26:28.256Z,18.87
2022-10-19T07:28:57.649Z,19.14
2022-10-19T07:31:26.988Z,19.29
2022-10-19T07:33:55.434Z,19.70
2022-10-19T07:36:27.154Z,21.00
2022-10-19T07:38:55.217Z,22.68
2022-10-19T07:41:25.340Z,22.88
2022-10-19T07:43:55.406Z,20.50
2022-10-19T07:46:26.275Z,22.25
2022-10-19T07:48:53.999Z,22.74
2022-10-19T07:51:22.847Z,22.62
2022-10-19T07:53:50.621Z,23.26
2022-10-19T07:56:23.229Z,22.63
2022-10-19T07:58:55.197Z,24.85
2022-10-19T08:01:27.046Z,23.37
2022-10-19T08:06:43.399Z,24.02
2022-10-19T08:09:15.685Z,25.80
2022-10-19T08:11:50.464Z,25.83
2022-10-19T08:14:18.010Z,27.40
2022-10-19T08:16:46.052Z,27.72
2022-10-19T08:19:16.198Z,26.56
2022-10-19T08:21:46.008Z,25.69
2022-10-19T08:24:15.467Z,26.69
2022-10-19T08:26:46.831Z,27.33
2022-10-19T08:29:19.704Z,27.71
2022-10-19T08:31:49.169Z,28.12
2022-10-19T08:34:17.115Z,28.06
2022-10-19T08:36:44.514Z,29.80
2022-10-19T08:39:12.889Z,29.65
2022-10-19T08:41:40.244Z,28.05
2022-10-19T08:44:38.590Z,27.36
2022-10-19T08:47:23.209Z,26.87
2022-10-19T08:49:51.283Z,28.90
2022-10-19T08:52:34.095Z,29.90
2022-10-19T08:55:09.144Z,30.50
2022-10-19T08:58:16.328Z,29.05
2022-10-19T09:01:00.996Z,29.67
2022-10-19T09:03:55.503Z,28.43
2022-10-19T09:06:36.314Z,29.54
2022-10-19T09:09:05.445Z,29.79
2022-10-19T09:11:38.807Z,30.54
2022-10-19T09:14:31.111Z,30.78
2022-10-19T09:17:04.242Z,30.32
2022-10-19T09:19:32.125Z,30.15
2022-10-19T09:22:06.032Z,30.37
2022-10-19T09:24:48.154Z,30.02
2022-10-19T09:27:23.231Z,29.89
2022-10-19T09:29:58.515Z,30.17
2022-10-19T09:32:32.435Z,30.68
2022-10-19T09:35:03.080Z,32.05
2022-10-19T09:37:32.675Z,31.64
2022-10-19T09:40:00.306Z,31.16
2022-10-19T09:42:36.879Z,31.26
2022-10-19T09:45:25.540Z,30.68
2022-10-19T09:47:53.500Z,32.01
2022-10-19T09:50:24.863Z,32.89
2022-10-19T09:52:56.407Z,31.22
2022-10-19T09:55:28.373Z,30.08
2022-10-19T09:58:15.204Z,30.84
2022-10-19T10:00:44.292Z,30.81
2022-10-19T10:03:43.440Z,30.03
2022-10-19T10:06:15.734Z,29.33
2022-10-19T10:08:57.908Z,29.23
2022-10-19T10:11:30.409Z,26.29
2022-10-19T10:14:05.047Z,27.86
2022-10-19T10:16:36.503Z,28.34
2022-10-19T10:19:07.103Z,28.04
2022-10-19T10:21:58.372Z,28.33
2022-10-19T10:24:30.953Z,28.44
2022-10-19T10:27:01.085Z,28.72
2022-10-19T10:29:33.864Z,28.97
2022-10-19T10:32:20.481Z,28.62
2022-10-19T10:34:58.567Z,28.35
2022-10-19T10:37:38.873Z,26.96
2022-10-19T10:40:23.251Z,27.89
2022-10-19T10:42:54.427Z,28.16
2022-10-19T10:45:29.270Z,27.83
2022-10-19T10:47:57.770Z,26.92
2022-10-19T10:50:32.532Z,27.78
2022-10-19T10:53:02.575Z,27.62
2022-10-19T10:55:31.991Z,27.81
2022-10-19T10:58:24.257Z,28.00
2022-10-19T11:00:54.202Z,28.60
2022-10-19T11:03:28.901Z,28.06
2022-10-19T11:05:58.464Z,27.50
2022-10-19T11:08:44.410Z,27.39
2022-10-19T11:11:24.113Z,26.76
2022-10-19T11:14:09.597Z,27.09
2022-10-19T11:16:45.419Z,26.17
2022-10-19T11:19:40.184Z,25.77
2022-10-19T11:22:29.893Z,27.17
2022-10-19T11:25:18.594Z,27.58
2022-10-19T11:28:17.864Z,26.83
2022-10-19T11:31:20.589Z,26.92
2022-10-19T11:33:53.819Z,27.56
2022-10-19T11:36:50.921Z,27.26
2022-10-19T11:39:39.485Z,27.34
2022-10-19T11:42:18.824Z,27.73
2022-10-19T11:45:06.042Z,27.45
2022-10-19T11:48:03.254Z,27.05
2022-10-19T11:50:54.348Z,27.20
2022-10-19T11:53:50.639Z,27.57
2022-10-19T11:56:39.167Z,27.72
2022-10-19T11:59:21.358Z,27.77
2022-10-19T12:02:04.326Z,27.47
2022-10-19T12:04:58.652Z,26.94
2022-10-19T12:08:08.020Z,26.65
2022-10-19T12:10:50.271Z,27.35
2022-10-19T12:13:54.993Z,27.04
2022-10-19T12:16:36.026Z,27.65
2022-10-19T12:19:05.738Z,27.83
2022-10-19T12:21:43.248Z,27.68
2022-10-19T12:24:17.737Z,27.81
2022-10-19T12:26:46.101Z,27.83
2022-10-19T12:29:19.711Z,27.92
2022-10-19T12:31:49.001Z,27.38
2022-10-19T12:34:22.350Z,27.17
2022-10-19T12:36:58.492Z,27.20
2022-10-19T12:39:41.103Z,27.23
2022-10-19T12:42:35.058Z,27.07
2022-10-19T12:45:18.809Z,26.77
2022-10-19T12:48:11.199Z,26.92
2022-10-19T12:50:51.537Z,26.52
2022-10-19T12:56:10.927Z,26.63
2022-10-19T12:58:47.463Z,26.67
2022-10-19T13:01:43.950Z,27.00
2022-10-19T13:04:15.642Z,27.29
2022-10-19T13:06:46.134Z,26.55
2022-10-19T13:09:31.446Z,26.94
2022-10-19T13:12:17.700Z,26.84
2022-10-19T13:14:50.907Z,26.97
2022-10-19T13:17:45.386Z,26.79
2022-10-19T13:20:16.041Z,27.00
2022-10-19T13:22:52.994Z,26.98
2022-10-19T13:25:28.967Z,26.88
2022-10-19T13:31:08.233Z,27.62
2022-10-19T13:36:34.414Z,26.93
2022-10-19T13:47:50.053Z,27.34
2022-10-19T13:54:10.063Z,27.05
2022-10-19T14:11:14.733Z,27.38
2022-10-19T14:49:08.289Z,27.28
2022-10-19T14:52:56.316Z,27.08
2022-10-19T15:30:30.381Z,26.05
2022-10-19T15:33:21.303Z,26.30
2022-10-19T15:35:49.714Z,26.24
2022-10-19T15:38:26.930Z,26.17
2022-10-19T15:41:00.447Z,26.10
2022-10-19T19:54:53.645Z,19.97
2022-10-19T19:57:23.802Z,19.86
2022-10-19T20:00:00.475Z,20.00
2022-10-19T20:02:40.740Z,20.24
2022-10-19T20:05:11.254Z,19.88
2022-10-19T20:07:41.421Z,19.78
2022-10-19T20:10:50.594Z,20.01
2022-10-19T20:14:05.402Z,20.08
2022-10-19T20:16:36.716Z,20.18
2022-10-19T20:19:15.077Z,19.97
2022-10-19T20:21:43.184Z,19.91
2022-10-19T20:24:13.261Z,20.03
2022-10-19T20:26:40.832Z,20.27
2022-10-19T20:29:08.378Z,20.18
2022-10-19T20:31:40.328Z,20.16
2022-10-19T20:34:11.788Z,19.81
2022-10-19T20:36:40.065Z,19.77
2022-10-19T20:39:13.671Z,19.85
2022-10-19T20:41:41.452Z,20.00
2022-10-19T20:44:23.894Z,20.11
2022-10-19T20:47:00.894Z,19.43
2022-10-19T20:49:42.836Z,19.57
2022-10-19T20:52:13.477Z,19.75
2022-10-19T20:54:51.344Z,19.35
2022-10-19T20:57:19.131Z,19.30
2022-10-19T20:59:49.291Z,19.32
2022-10-19T21:02:18.127Z,19.34
2022-10-19T21:04:45.706Z,19.22
2022-10-19T21:07:13.304Z,19.30
2022-10-19T21:09:49.620Z,19.26
2022-10-19T21:12:17.309Z,19.20
2022-10-19T21:14:49.159Z,19.17
2022-10-19T21:17:16.804Z,19.31
2022-10-19T21:19:57.373Z,19.28
2022-10-19T21:22:28.127Z,19.22
2022-10-19T21:25:15.942Z,19.31
2022-10-19T21:27:46.661Z,19.24
2022-10-19T21:30:14.254Z,19.22
2022-10-19T21:32:41.806Z,19.24
2022-10-19T21:35:09.332Z,19.35
2022-10-19T21:37:37.248Z,19.53
2022-10-19T21:40:05.426Z,19.51
2022-10-19T21:42:32.960Z,19.51
2022-10-19T21:45:28.783Z,19.51
2022-10-19T21:47:53.219Z,19.45
2022-10-19T21:50:20.722Z,19.41
2022-10-19T21:52:48.314Z,19.45
2022-10-19T21:55:40.949Z,19.13
2022-10-19T21:59:29.822Z,19.11
2022-10-19T22:01:38.684Z,18.95
2022-10-19T22:04:13.482Z,18.87
2022-10-19T22:06:41.641Z,18.68
2022-10-19T22:09:39.732Z,18.61
2022-10-19T22:12:17.354Z,18.61
2022-10-19T22:14:45.355Z,18.51
2022-10-19T22:18:12.346Z,18.72
2022-10-19T22:20:33.084Z,18.62
2022-10-19T22:23:16.810Z,18.70
2022-10-19T22:25:55.965Z,18.67
2022-10-19T22:28:23.847Z,18.47
2022-10-19T22:30:59.176Z,18.36
2022-10-19T22:33:26.661Z,18.37
2022-10-19T22:35:59.329Z,18.36
2022-10-19T22:39:18.256Z,18.71
2022-10-19T22:47:41.517Z,18.73
2022-10-19T22:55:01.691Z,18.17
2022-10-19T23:06:37.322Z,18.14
2022-10-19T23:18:19.382Z,17.65
2022-10-19T23:29:52.310Z,17.85
2022-10-19T23:41:28.654Z,18.00
2022-10-19T23:46:41.368Z,18.22
2022-10-19T23:53:48.519Z,18.22
2022-10-19T23:56:23.329Z,18.21
2022-10-19T23:58:54.351Z,18.25
